createdAt,value
2023-10-06T00:00:34.085Z,10.42
2023-10-06T00:03:31.729Z,10.43
2023-10-06T00:06:22.714Z,10.43
2023-10-06T00:09:13.000Z,10.43
2023-10-06T00:11:53.883Z,10.44
2023-10-06T00:14:48.905Z,10.42
2023-10-06T00:18:08.411Z,10.40
2023-10-06T00:20:50.161Z,10.39
2023-10-06T00:23:29.719Z,10.41
2023-10-06T00:26:17.198Z,10.41
2023-10-06T00:28:49.937Z,10.40
2023-10-06T00:31:29.123Z,10.41
2023-10-06T00:34:05.588Z,10.42
2023-10-06T00:37:03.777Z,10.42
2023-10-06T00:39:34.277Z,10.43
2023-10-06T00:42:05.666Z,10.43
2023-10-06T00:44:43.638Z,10.43
2023-10-06T00:47:15.334Z,10.43
2023-10-06T00:49:56.126Z,10.43
2023-10-06T00:53:06.318Z,10.42
2023-10-06T00:55:46.522Z,10.43
2023-10-06T00:58:27.515Z,10.44
2023-10-06T01:01:34.819Z,10.43
2023-10-06T01:04:23.755Z,10.43
2023-10-06T01:08:14.828Z,10.44
2023-10-06T01:11:12.567Z,10.45
2023-10-06T01:13:56.452Z,10.45
2023-10-06T01:16:53.483Z,10.43
2023-10-06T01:19:34.078Z,10.43
2023-10-06T01:22:53.698Z,10.41
2023-10-06T01:25:56.144Z,10.42
2023-10-06T01:28:38.477Z,10.42
2023-10-06T01:31:27.000Z,10.42
2023-10-06T01:34:00.252Z,10.43
2023-10-06T01:36:32.215Z,10.45
2023-10-06T01:39:25.309Z,10.45
2023-10-06T01:42:18.036Z,10.44
2023-10-06T01:45:03.825Z,10.41
2023-10-06T01:47:56.997Z,10.38
2023-10-06T01:50:28.105Z,10.37
2023-10-06T01:53:19.571Z,10.34
2023-10-06T01:55:55.079Z,10.34
2023-10-06T01:59:14.595Z,10.36
2023-10-06T02:02:13.165Z,10.38
2023-10-06T02:05:12.666Z,10.41
2023-10-06T02:07:49.568Z,10.43
2023-10-06T02:10:43.029Z,10.43
2023-10-06T02:13:34.609Z,10.41
2023-10-06T02:16:04.031Z,10.39
2023-10-06T02:19:06.627Z,10.37
2023-10-06T02:22:07.694Z,10.32
2023-10-06T02:25:06.172Z,10.26
2023-10-06T02:27:48.121Z,10.23
2023-10-06T02:30:23.400Z,10.18
2023-10-06T02:33:17.750Z,10.15
2023-10-06T02:36:18.712Z,10.15
2023-10-06T02:38:52.813Z,10.17
2023-10-06T02:41:41.575Z,10.18
2023-10-06T02:44:37.489Z,10.19
2023-10-06T02:47:10.449Z,10.17
2023-10-06T02:49:41.069Z,10.15
2023-10-06T02:52:30.997Z,10.14
2023-10-06T02:55:31.501Z,10.13
2023-10-06T02:58:27.108Z,10.12
2023-10-06T03:00:56.421Z,10.08
2023-10-06T03:03:30.105Z,10.09
2023-10-06T03:06:22.248Z,10.11
2023-10-06T03:08:52.490Z,10.12
2023-10-06T03:11:24.146Z,10.12
2023-10-06T03:14:08.548Z,10.12
2023-10-06T03:17:05.348Z,10.14
2023-10-06T03:19:33.697Z,10.16
2023-10-06T03:22:05.692Z,10.18
2023-10-06T03:24:34.372Z,10.19
2023-10-06T03:27:15.906Z,10.22
2023-10-06T03:30:40.138Z,10.24
2023-10-06T03:33:13.890Z,10.26
2023-10-06T03:35:48.473Z,10.28
2023-10-06T03:38:18.609Z,10.29
2023-10-06T03:41:06.841Z,10.32
2023-10-06T03:43:52.568Z,10.32
2023-10-06T03:46:56.123Z,10.33
2023-10-06T03:49:44.722Z,10.35
2023-10-06T03:52:17.797Z,10.35
2023-10-06T03:54:50.745Z,10.37
2023-10-06T03:57:20.461Z,10.38
2023-10-06T03:59:56.753Z,10.40
2023-10-06T04:02:39.171Z,10.40
2023-10-06T04:05:27.101Z,10.41
2023-10-06T04:08:14.631Z,10.41
2023-10-06T04:11:05.976Z,10.44
2023-10-06T04:13:58.631Z,10.43
2023-10-06T04:16:27.281Z,10.45
2023-10-06T04:19:04.157Z,10.47
2023-10-06T04:21:31.284Z,10.48
2023-10-06T04:24:01.718Z,10.50
2023-10-06T04:26:41.359Z,10.51
2023-10-06T04:29:19.608Z,10.53
2023-10-06T04:31:56.966Z,10.56
2023-10-06T04:34:37.341Z,10.58
2023-10-06T04:37:08.333Z,10.61
2023-10-06T04:39:42.757Z,10.62
2023-10-06T04:42:22.763Z,10.64
2023-10-06T04:45:01.743Z,10.66
2023-10-06T04:47:48.880Z,10.67
2023-10-06T04:50:30.285Z,10.68
2023-10-06T04:52:57.842Z,10.68
2023-10-06T04:55:25.229Z,10.68
2023-10-06T04:57:56.245Z,10.69
2023-10-06T05:00:23.654Z,10.70
2023-10-06T05:02:54.504Z,10.71
2023-10-06T05:05:52.066Z,10.71
2023-10-06T05:08:19.679Z,10.70
2023-10-06T05:11:08.455Z,10.70
2023-10-06T05:13:40.295Z,10.69
2023-10-06T05:16:36.259Z,10.68
2023-10-06T05:19:34.331Z,10.68
2023-10-06T05:22:13.823Z,10.68
2023-10-06T05:25:04.784Z,10.68
2023-10-06T05:27:34.856Z,10.68
2023-10-06T05:30:42.509Z,10.69
2023-10-06T05:33:42.743Z,10.71
2023-10-06T05:36:40.577Z,10.72
2023-10-06T05:39:12.443Z,10.75
2023-10-06T05:42:00.416Z,10.75
2023-10-06T05:44:39.120Z,10.77
2023-10-06T05:47:09.705Z,10.80
2023-10-06T05:49:54.435Z,10.83
2023-10-06T05:52:24.704Z,10.86
2023-10-06T05:55:05.866Z,10.88
2023-10-06T05:57:51.898Z,10.90
2023-10-06T06:01:51.214Z,10.90
2023-10-06T06:05:21.523Z,10.94
2023-10-06T06:08:01.937Z,10.96
2023-10-06T06:10:35.910Z,10.98
2023-10-06T06:13:09.084Z,11.00
2023-10-06T06:15:45.412Z,11.02
2023-10-06T06:18:36.695Z,11.03
2023-10-06T06:21:54.596Z,11.02
2023-10-06T08:31:58.865Z,12.98
2023-10-06T08:34:28.675Z,12.98
2023-10-06T08:37:13.849Z,13.04
2023-10-06T08:40:43.795Z,13.10
2023-10-06T08:43:20.492Z,13.13
2023-10-06T08:47:32.494Z,13.16
2023-10-06T08:53:41.741Z,13.34
2023-10-06T09:08:56.033Z,13.62
2023-10-06T09:12:30.577Z,13.80
2023-10-06T09:19:21.676Z,14.12
2023-10-06T09:23:33.079Z,14.22
2023-10-06T09:26:51.220Z,14.31
2023-10-06T09:29:59.514Z,14.32
2023-10-06T09:33:36.943Z,14.34
2023-10-06T09:44:37.770Z,14.60
2023-10-06T09:48:32.267Z,14.72
2023-10-06T09:51:50.648Z,14.85
2023-10-06T09:55:45.412Z,15.02
2023-10-06T09:59:37.692Z,15.07
2023-10-06T10:18:54.594Z,15.60
2023-10-06T10:25:23.848Z,15.69
2023-10-06T10:26:21.901Z,15.75
2023-10-06T11:14:44.104Z,16.33
2023-10-06T11:19:22.734Z,16.45
2023-10-06T13:21:00.661Z,15.68
2023-10-06T13:33:06.550Z,15.98
2023-10-06T13:36:56.115Z,16.16
2023-10-06T13:40:29.048Z,16.43
2023-10-06T13:44:20.754Z,16.63
2023-10-06T13:47:03.385Z,16.85
2023-10-06T13:50:23.489Z,16.98
2023-10-06T13:54:11.189Z,17.03
2023-10-06T13:57:11.292Z,17.05
2023-10-06T14:00:27.523Z,17.12
2023-10-06T14:03:44.575Z,17.18
2023-10-06T14:11:17.252Z,17.08
2023-10-06T14:18:06.737Z,16.87
2023-10-06T14:21:37.329Z,16.92
2023-10-06T14:24:49.372Z,16.92
2023-10-06T14:29:06.395Z,16.80
2023-10-06T14:31:51.558Z,16.63
2023-10-06T14:34:55.331Z,16.50
2023-10-06T14:38:14.943Z,16.42
2023-10-06T14:41:52.444Z,16.37
2023-10-06T14:48:59.539Z,16.23
2023-10-06T14:56:16.662Z,16.20
2023-10-06T14:59:32.156Z,16.17
2023-10-06T15:02:27.062Z,16.16
2023-10-06T15:09:23.841Z,16.11
2023-10-06T15:12:32.068Z,16.08
2023-10-06T15:21:41.304Z,16.05
2023-10-06T15:24:18.236Z,16.04
2023-10-06T15:27:08.274Z,16.06
2023-10-06T15:29:59.601Z,16.06
2023-10-06T15:41:24.334Z,15.97
2023-10-06T15:44:05.853Z,15.92
2023-10-06T15:46:51.035Z,15.87
2023-10-06T15:50:06.201Z,15.77
2023-10-06T16:39:18.970Z,15.51
2023-10-06T16:42:20.609Z,15.49
2023-10-06T16:47:37.475Z,15.46
2023-10-06T16:50:53.226Z,15.44
2023-10-06T16:54:23.033Z,15.42
2023-10-06T16:57:49.337Z,15.42
2023-10-06T17:01:55.413Z,15.39
2023-10-06T17:05:18.104Z,15.37
2023-10-06T17:08:50.049Z,15.36
2023-10-06T17:12:53.760Z,15.35
2023-10-06T17:15:50.293Z,15.35
2023-10-06T17:18:43.954Z,15.36
2023-10-06T17:21:27.394Z,15.35
2023-10-06T17:24:08.512Z,15.37
2023-10-06T17:27:06.038Z,15.38
2023-10-06T17:30:19.164Z,15.41
2023-10-06T17:33:14.404Z,15.38
2023-10-06T17:35:53.785Z,15.35
2023-10-06T17:38:51.574Z,15.32
2023-10-06T17:41:43.984Z,15.31
2023-10-06T17:44:21.798Z,15.28
2023-10-06T17:47:27.147Z,15.28
2023-10-06T17:50:39.579Z,15.29
2023-10-06T17:53:27.367Z,15.30
2023-10-06T17:56:06.066Z,15.30
2023-10-06T17:59:15.375Z,15.33
2023-10-06T18:05:17.070Z,15.34
2023-10-06T18:08:24.171Z,15.39
2023-10-06T18:11:19.105Z,15.44
2023-10-06T18:14:01.180Z,15.49
2023-10-06T18:16:55.281Z,15.51
2023-10-06T18:19:43.230Z,15.52
2023-10-06T18:23:09.132Z,15.53
2023-10-06T18:26:03.112Z,15.55
2023-10-06T18:28:37.826Z,15.57
2023-10-06T18:31:11.098Z,15.57
2023-10-06T18:33:52.084Z,15.55
2023-10-06T18:36:32.631Z,15.58
2023-10-06T18:39:28.185Z,15.59
2023-10-06T18:43:05.734Z,15.60
2023-10-06T18:46:24.246Z,15.62
2023-10-06T18:49:32.485Z,15.63
2023-10-06T18:52:12.443Z,15.64
2023-10-06T18:54:56.273Z,15.64
2023-10-06T18:58:05.866Z,15.66
2023-10-06T19:00:40.639Z,15.65
2023-10-06T19:03:48.108Z,15.65
2023-10-06T19:06:32.627Z,15.62
2023-10-06T19:09:15.746Z,15.61
2023-10-06T19:11:56.312Z,15.61
2023-10-06T19:14:34.630Z,15.61
2023-10-06T19:17:19.708Z,15.65
2023-10-06T19:20:09.171Z,15.66
2023-10-06T19:22:48.046Z,15.67
2023-10-06T19:25:18.974Z,15.68
2023-10-06T19:28:16.389Z,15.66
2023-10-06T19:31:58.910Z,15.68
2023-10-06T19:34:52.480Z,15.69
2023-10-06T19:37:56.998Z,15.68
2023-10-06T19:41:08.335Z,15.67
2023-10-06T19:44:18.484Z,15.67
2023-10-06T19:47:59.312Z,15.68
2023-10-06T19:51:46.111Z,15.69
2023-10-06T19:56:47.812Z,15.67
2023-10-06T19:58:33.040Z,15.59
2023-10-06T20:01:43.911Z,15.58
2023-10-06T20:05:11.683Z,15.62
2023-10-06T20:08:13.552Z,15.65
2023-10-06T20:11:06.436Z,15.67
2023-10-06T20:14:48.406Z,15.66
2023-10-06T20:17:38.879Z,15.65
2023-10-06T20:21:45.767Z,15.66
2023-10-06T20:30:03.903Z,15.70
2023-10-06T20:30:12.010Z,15.66
2023-10-06T20:33:52.520Z,15.68
2023-10-06T20:37:44.096Z,15.65
2023-10-06T20:41:23.196Z,15.68
2023-10-06T20:48:28.434Z,15.64
2023-10-06T20:51:37.514Z,15.63
2023-10-06T20:54:47.077Z,15.63
2023-10-06T20:58:05.581Z,15.62
2023-10-06T21:01:12.490Z,15.60
2023-10-06T21:04:12.218Z,15.55
2023-10-06T21:07:04.891Z,15.47
2023-10-06T21:10:12.768Z,15.43
2023-10-06T21:13:53.304Z,15.40
2023-10-06T21:17:05.010Z,15.35
2023-10-06T21:20:16.492Z,15.35
2023-10-06T21:23:55.970Z,15.32
2023-10-06T21:27:38.245Z,15.26
2023-10-06T21:30:29.516Z,15.26
2023-10-06T21:33:48.848Z,15.22
2023-10-06T21:37:38.272Z,15.11
2023-10-06T21:40:25.495Z,15.03
2023-10-06T21:43:13.435Z,15.02
2023-10-06T21:46:10.804Z,15.04
2023-10-06T21:48:42.004Z,15.01
2023-10-06T21:51:41.162Z,14.98
2023-10-06T21:54:12.247Z,14.95
2023-10-06T21:57:01.773Z,14.91
2023-10-06T21:59:46.503Z,14.88
2023-10-06T22:02:20.478Z,14.89
2023-10-06T22:05:15.530Z,14.86
2023-10-06T22:08:26.295Z,14.84
2023-10-06T22:11:41.582Z,14.84
2023-10-06T22:14:39.826Z,14.80
2023-10-06T22:17:48.274Z,14.82
2023-10-06T22:20:55.815Z,14.85
2023-10-06T22:23:48.249Z,14.86
2023-10-06T22:26:38.630Z,14.86
2023-10-06T22:29:15.305Z,14.86
2023-10-06T22:32:29.086Z,14.83
2023-10-06T22:35:31.684Z,14.82
2023-10-06T22:38:05.111Z,14.80
2023-10-06T22:40:38.430Z,14.79
2023-10-06T22:43:40.556Z,14.79
2023-10-06T22:46:31.203Z,14.79
2023-10-06T22:49:13.387Z,14.77
2023-10-06T22:55:19.462Z,14.67
2023-10-06T22:58:33.702Z,14.64
2023-10-06T23:01:27.579Z,14.61
2023-10-06T23:03:59.093Z,14.56
2023-10-06T23:06:51.010Z,14.52
2023-10-06T23:10:07.051Z,14.49
2023-10-06T23:16:12.869Z,14.46
2023-10-06T23:19:10.541Z,14.49
2023-10-06T23:23:01.322Z,14.50
2023-10-06T23:26:30.038Z,14.54
2023-10-06T23:29:43.145Z,14.54
2023-10-06T23:33:06.066Z,14.54
2023-10-06T23:37:13.877Z,14.63
2023-10-06T23:40:48.799Z,14.75
2023-10-06T23:44:38.918Z,14.84
2023-10-06T23:48:22.868Z,14.84
2023-10-06T23:52:15.526Z,14.83
2023-10-06T23:55:32.990Z,14.85
2023-10-06T23:58:34.963Z,14.84
